createdAt,value
2022-11-28T00:01:38.139Z,4.60
2022-11-28T00:04:10.127Z,4.60
2022-11-28T00:06:40.134Z,4.60
2022-11-28T00:09:09.609Z,4.70
2022-11-28T00:11:37.690Z,4.70
2022-11-28T00:14:05.803Z,4.70
2022-11-28T00:16:34.082Z,4.60
2022-11-28T00:19:02.997Z,4.60
2022-11-28T00:21:32.467Z,4.50
2022-11-28T00:24:01.453Z,4.50
2022-11-28T00:26:31.589Z,4.50
2022-11-28T00:29:00.542Z,4.40
2022-11-28T00:31:30.702Z,4.40
2022-11-28T00:33:58.954Z,4.50
2022-11-28T00:36:26.903Z,4.50
2022-11-28T00:38:56.641Z,4.40
2022-11-28T00:41:27.025Z,4.30
2022-11-28T00:43:55.344Z,4.40
2022-11-28T00:46:24.463Z,4.40
2022-11-28T00:48:52.897Z,4.30
2022-11-28T00:51:22.985Z,4.30
2022-11-28T00:53:52.634Z,4.30
2022-11-28T00:56:24.718Z,4.30
2022-11-28T00:58:52.966Z,4.30
2022-11-28T01:01:22.806Z,4.40
2022-11-28T01:03:52.518Z,4.30
2022-11-28T01:06:24.863Z,4.40
2022-11-28T01:08:53.137Z,4.40
2022-11-28T01:11:23.661Z,4.40
2022-11-28T01:13:51.893Z,4.40
2022-11-28T01:16:20.047Z,4.40
2022-11-28T01:18:48.060Z,4.40
2022-11-28T01:21:16.077Z,4.40
2022-11-28T01:23:44.450Z,4.40
2022-11-28T01:26:17.832Z,4.40
2022-11-28T01:28:47.363Z,4.50
2022-11-28T01:31:17.914Z,4.40
2022-11-28T01:33:46.214Z,4.40
2022-11-28T01:36:15.371Z,4.40
2022-11-28T01:38:43.960Z,4.40
2022-11-28T01:41:12.460Z,4.40
2022-11-28T01:44:00.789Z,4.40
2022-11-28T01:46:33.099Z,4.40
2022-11-28T01:49:05.640Z,4.40
2022-11-28T01:51:34.748Z,4.40
2022-11-28T01:54:03.776Z,4.40
2022-11-28T01:56:41.006Z,4.40
2022-11-28T01:59:12.836Z,4.40
2022-11-28T02:01:41.133Z,4.40
2022-11-28T02:04:10.166Z,4.40
2022-11-28T02:06:38.181Z,4.30
2022-11-28T02:09:10.740Z,4.30
2022-11-28T02:12:09.558Z,4.30
2022-11-28T02:15:01.874Z,4.30
2022-11-28T02:17:42.015Z,4.30
2022-11-28T02:20:48.168Z,4.40
2022-11-28T02:23:23.532Z,4.40
2022-11-28T02:26:11.907Z,4.30
2022-11-28T02:29:04.053Z,4.30
2022-11-28T02:31:57.597Z,4.30
2022-11-28T02:34:32.096Z,4.30
2022-11-28T02:37:07.336Z,4.40
2022-11-28T02:39:44.370Z,4.30
2022-11-28T02:42:19.446Z,4.40
2022-11-28T02:44:56.116Z,4.30
2022-11-28T02:47:26.829Z,4.30
2022-11-28T02:50:26.686Z,4.30
2022-11-28T02:53:01.269Z,4.30
2022-11-28T02:55:29.281Z,4.30
2022-11-28T02:57:57.277Z,4.30
2022-11-28T03:00:29.383Z,4.30
2022-11-28T03:03:17.304Z,4.30
2022-11-28T03:05:50.630Z,4.20
2022-11-28T03:08:36.562Z,4.20
2022-11-28T03:11:11.395Z,4.20
2022-11-28T03:13:43.468Z,4.20
2022-11-28T03:16:20.017Z,4.20
2022-11-28T03:19:02.242Z,4.20
2022-11-28T03:21:38.351Z,4.20
2022-11-28T03:24:14.007Z,4.20
2022-11-28T03:26:48.278Z,4.20
2022-11-28T03:29:21.743Z,4.20
2022-11-28T03:31:55.000Z,4.30
2022-11-28T03:34:27.931Z,4.30
2022-11-28T03:37:00.801Z,4.20
2022-11-28T03:39:35.384Z,4.30
2022-11-28T03:42:08.601Z,4.30
2022-11-28T03:44:41.056Z,4.20
2022-11-28T03:47:09.690Z,4.20
2022-11-28T03:49:40.828Z,4.20
2022-11-28T03:52:11.998Z,4.20
2022-11-28T03:54:49.852Z,4.20
2022-11-28T03:57:26.076Z,4.20
2022-11-28T03:59:56.259Z,4.10
2022-11-28T04:02:31.737Z,4.10
2022-11-28T04:05:04.351Z,4.10
2022-11-28T04:07:39.817Z,4.10
2022-11-28T04:10:15.425Z,4.00
2022-11-28T04:12:52.806Z,4.10
2022-11-28T04:15:27.862Z,4.10
2022-11-28T04:18:01.751Z,4.10
2022-11-28T04:20:36.669Z,4.10
2022-11-28T04:23:10.370Z,4.10
2022-11-28T04:25:45.711Z,4.10
2022-11-28T04:28:19.765Z,4.10
2022-11-28T04:30:50.828Z,4.10
2022-11-28T04:33:22.367Z,4.00
2022-11-28T04:35:53.039Z,4.00
2022-11-28T04:38:24.389Z,4.00
2022-11-28T04:40:57.568Z,4.00
2022-11-28T04:43:30.644Z,4.00
2022-11-28T04:46:05.533Z,4.00
2022-11-28T04:48:34.826Z,4.00
2022-11-28T04:51:11.438Z,4.00
2022-11-28T04:53:48.937Z,4.00
2022-11-28T04:56:22.900Z,4.00
2022-11-28T04:58:52.301Z,4.00
2022-11-28T05:01:24.450Z,4.00
2022-11-28T05:03:53.069Z,4.00
2022-11-28T05:06:27.033Z,4.00
2022-11-28T05:08:54.939Z,4.00
2022-11-28T05:11:24.416Z,4.00
2022-11-28T05:13:54.510Z,4.00
2022-11-28T05:16:23.678Z,3.90
2022-11-28T05:18:52.094Z,3.90
2022-11-28T05:21:20.380Z,3.90
2022-11-28T05:23:50.363Z,3.90
2022-11-28T05:26:20.494Z,3.90
2022-11-28T05:28:52.063Z,3.90
2022-11-28T05:31:26.721Z,3.90
2022-11-28T05:33:55.792Z,3.90
2022-11-28T05:36:26.211Z,3.90
2022-11-28T05:38:56.887Z,4.00
2022-11-28T05:41:29.011Z,3.90
2022-11-28T05:44:01.455Z,3.90
2022-11-28T05:46:30.233Z,3.90
2022-11-28T05:48:58.482Z,3.90
2022-11-28T05:51:26.435Z,3.90
2022-11-28T05:53:57.060Z,3.90
2022-11-28T05:56:25.202Z,3.90
2022-11-28T05:58:54.567Z,3.90
2022-11-28T06:01:25.465Z,3.90
2022-11-28T06:03:58.243Z,4.00
2022-11-28T06:06:27.206Z,4.00
2022-11-28T06:08:55.984Z,4.00
2022-11-28T06:11:25.910Z,3.90
2022-11-28T06:13:54.411Z,3.90
2022-11-28T06:16:25.306Z,3.90
2022-11-28T06:18:54.582Z,3.90
2022-11-28T06:21:24.168Z,3.90
2022-11-28T06:23:52.896Z,3.80
2022-11-28T06:26:24.800Z,3.80
2022-11-28T06:28:52.883Z,3.80
2022-11-28T06:31:24.003Z,3.80
2022-11-28T06:33:52.653Z,3.80
2022-11-28T06:36:21.471Z,3.80
2022-11-28T06:38:50.033Z,3.80
2022-11-28T06:41:20.263Z,3.70
2022-11-28T06:43:51.285Z,3.70
2022-11-28T06:46:21.552Z,3.70
2022-11-28T06:48:52.838Z,3.70
2022-11-28T06:51:21.952Z,3.70
2022-11-28T06:53:50.240Z,3.70
2022-11-28T06:56:20.744Z,3.70
2022-11-28T06:58:54.193Z,3.80
2022-11-28T07:01:24.346Z,3.70
2022-11-28T07:03:55.202Z,3.80
2022-11-28T07:06:24.859Z,3.80
2022-11-28T07:08:53.521Z,3.70
2022-11-28T07:11:24.047Z,3.70
2022-11-28T07:13:52.601Z,3.70
2022-11-28T07:16:23.219Z,3.70
2022-11-28T07:18:51.588Z,3.80
2022-11-28T07:21:21.763Z,3.80
2022-11-28T07:23:50.233Z,3.80
2022-11-28T07:26:20.182Z,3.80
2022-11-28T07:28:49.571Z,3.90
2022-11-28T07:31:20.677Z,3.80
2022-11-28T07:33:52.714Z,3.80
2022-11-28T07:36:23.412Z,3.90
2022-11-28T07:38:53.489Z,3.80
2022-11-28T07:41:26.206Z,3.90
2022-11-28T07:43:56.636Z,3.90
2022-11-28T07:46:26.293Z,4.00
2022-11-28T07:48:54.348Z,4.00
2022-11-28T07:51:25.805Z,4.00
2022-11-28T07:53:54.207Z,4.00
2022-11-28T07:56:24.846Z,4.00
2022-11-28T07:58:52.901Z,4.00
2022-11-28T08:01:22.712Z,4.00
2022-11-28T08:03:50.781Z,4.10
2022-11-28T08:06:20.403Z,4.10
2022-11-28T08:08:50.495Z,4.20
2022-11-28T08:11:21.084Z,4.20
2022-11-28T08:13:49.732Z,4.10
2022-11-28T08:16:20.613Z,4.10
2022-11-28T08:18:49.917Z,4.30
2022-11-28T08:21:20.303Z,4.30
2022-11-28T08:23:51.740Z,4.20
2022-11-28T08:26:24.905Z,4.30
2022-11-28T08:28:57.117Z,4.30
2022-11-28T08:31:27.404Z,4.30
2022-11-28T08:33:57.704Z,4.40
2022-11-28T08:36:29.109Z,4.30
2022-11-28T08:39:22.879Z,4.40
2022-11-28T08:41:49.809Z,4.40
2022-11-28T08:44:18.364Z,4.40
2022-11-28T08:46:46.613Z,4.50
2022-11-28T08:49:21.870Z,4.50
2022-11-28T08:51:50.025Z,4.60
2022-11-28T08:54:19.544Z,4.70
2022-11-28T08:56:50.128Z,4.70
2022-11-28T08:59:18.294Z,4.70
2022-11-28T09:01:46.204Z,4.70
2022-11-28T09:04:14.352Z,4.80
2022-11-28T09:06:44.167Z,4.90
2022-11-28T09:09:16.365Z,5.00
2022-11-28T09:11:46.059Z,5.00
2022-11-28T09:14:16.221Z,5.00
2022-11-28T09:16:44.982Z,5.00
2022-11-28T09:19:13.169Z,5.10
2022-11-28T09:21:41.583Z,5.10
2022-11-28T09:24:10.901Z,5.20
2022-11-28T09:26:39.265Z,5.20
2022-11-28T09:29:09.029Z,5.10
2022-11-28T09:31:37.251Z,5.20
2022-11-28T09:34:09.177Z,5.20
2022-11-28T09:36:40.318Z,5.30
2022-11-28T09:39:08.316Z,5.30
2022-11-28T09:42:01.913Z,5.30
2022-11-28T09:44:39.089Z,5.40
2022-11-28T09:47:13.228Z,5.50
2022-11-28T09:49:47.594Z,5.50
2022-11-28T09:52:26.976Z,5.50
2022-11-28T09:55:03.005Z,5.60
2022-11-28T09:57:35.591Z,5.70
2022-11-28T10:00:07.036Z,5.80
2022-11-28T10:02:40.319Z,5.80
2022-11-28T10:05:18.797Z,5.80
2022-11-28T10:08:01.696Z,5.80
2022-11-28T10:10:38.911Z,5.70
2022-11-28T10:13:14.912Z,5.60
2022-11-28T10:15:56.834Z,5.60
2022-11-28T10:18:35.873Z,5.70
2022-11-28T10:21:09.888Z,5.70
2022-11-28T10:23:43.441Z,5.70
2022-11-28T10:26:19.639Z,5.70
2022-11-28T10:28:51.270Z,5.80
2022-11-28T10:31:30.821Z,5.80
2022-11-28T10:34:03.719Z,5.80
2022-11-28T10:36:35.404Z,5.80
2022-11-28T10:39:11.634Z,6.10
2022-11-28T10:42:13.943Z,6.30
2022-11-28T10:45:00.689Z,6.30
2022-11-28T10:47:50.998Z,6.10
2022-11-28T10:50:32.506Z,6.10
2022-11-28T10:53:04.536Z,6.10
2022-11-28T10:55:44.327Z,6.00
2022-11-28T10:58:24.955Z,6.00
2022-11-28T11:00:56.006Z,6.00
2022-11-28T11:03:29.563Z,5.90
2022-11-28T11:05:57.633Z,5.80
2022-11-28T11:08:28.181Z,5.80
2022-11-28T11:11:02.406Z,5.70
2022-11-28T11:13:33.153Z,5.70
2022-11-28T11:16:03.751Z,5.70
2022-11-28T11:18:36.173Z,5.70
2022-11-28T11:21:17.473Z,5.70
2022-11-28T11:23:45.670Z,5.90
2022-11-28T11:26:26.710Z,5.90
2022-11-28T11:28:55.707Z,5.90
2022-11-28T11:31:26.695Z,5.80
2022-11-28T11:34:04.252Z,5.80
2022-11-28T11:36:34.344Z,5.80
2022-11-28T11:39:18.014Z,5.80
2022-11-28T11:41:47.600Z,5.80
2022-11-28T11:44:35.522Z,5.80
2022-11-28T11:47:05.522Z,5.80
2022-11-28T11:52:07.006Z,5.80
2022-11-28T11:54:35.129Z,5.60
2022-11-28T11:57:31.382Z,5.70
2022-11-28T11:59:56.574Z,5.80
2022-11-28T12:02:29.843Z,5.80
2022-11-28T12:05:03.884Z,5.90
2022-11-28T12:07:40.665Z,5.90
2022-11-28T12:10:16.500Z,6.10
2022-11-28T12:12:44.560Z,6.00
2022-11-28T12:15:20.589Z,5.90
2022-11-28T12:18:01.638Z,5.90
2022-11-28T12:20:45.075Z,5.90
2022-11-28T12:23:31.132Z,6.00
2022-11-28T12:26:07.238Z,6.00
2022-11-28T12:28:47.456Z,5.90
2022-11-28T12:31:25.797Z,6.00
2022-11-28T12:34:04.395Z,5.90
2022-11-28T12:36:38.990Z,6.00
2022-11-28T12:39:28.538Z,5.90
2022-11-28T12:42:16.640Z,6.00
2022-11-28T12:45:00.992Z,6.00
2022-11-28T12:47:41.488Z,6.00
2022-11-28T12:50:22.786Z,6.10
2022-11-28T12:52:59.782Z,6.10
2022-11-28T12:55:42.688Z,6.20
2022-11-28T12:58:19.741Z,6.20
2022-11-28T13:00:56.551Z,6.30
2022-11-28T13:03:41.087Z,6.30
2022-11-28T13:06:27.830Z,6.30
2022-11-28T13:09:25.632Z,6.20
2022-11-28T13:12:04.869Z,6.30
2022-11-28T13:14:42.282Z,6.20
2022-11-28T13:17:24.456Z,6.30
2022-11-28T13:20:00.338Z,6.30
2022-11-28T13:22:34.102Z,6.20
2022-11-28T13:25:09.011Z,6.20
2022-11-28T13:27:45.824Z,6.20
2022-11-28T13:30:22.581Z,6.10
2022-11-28T13:32:58.611Z,6.20
2022-11-28T13:35:28.775Z,6.20
2022-11-28T13:40:55.677Z,6.10
2022-11-28T13:43:34.999Z,6.20
2022-11-28T13:46:03.496Z,6.20
2022-11-28T13:49:14.481Z,6.20
2022-11-28T13:51:44.494Z,6.20
2022-11-28T13:54:47.777Z,6.20
2022-11-28T13:57:30.461Z,6.20
2022-11-28T14:00:05.965Z,6.20
2022-11-28T14:02:43.070Z,6.20
2022-11-28T14:05:28.293Z,6.20
2022-11-28T14:07:57.646Z,6.20
2022-11-28T14:10:50.621Z,6.10
2022-11-28T14:13:49.942Z,6.20
2022-11-28T14:16:33.373Z,6.10
2022-11-28T14:19:15.799Z,6.10
2022-11-28T14:21:59.733Z,6.20
2022-11-28T14:24:42.843Z,6.20
2022-11-28T14:27:21.036Z,6.20
2022-11-28T14:29:51.605Z,6.30
2022-11-28T14:32:33.588Z,6.20
2022-11-28T14:35:02.722Z,6.30
2022-11-28T14:37:49.187Z,6.20
2022-11-28T14:41:06.341Z,6.20
2022-11-28T14:43:38.829Z,6.20
2022-11-28T14:46:29.012Z,6.20
2022-11-28T14:49:23.857Z,6.20
2022-11-28T14:52:38.495Z,6.20
2022-11-28T14:55:18.541Z,6.20
2022-11-28T14:57:58.569Z,6.10
2022-11-28T15:00:28.317Z,6.10
2022-11-28T15:03:19.559Z,6.10
2022-11-28T15:05:51.685Z,6.10
2022-11-28T15:08:53.152Z,6.00
2022-11-28T15:11:44.802Z,6.00
2022-11-28T15:14:24.037Z,6.10
2022-11-28T15:16:56.109Z,6.00
2022-11-28T15:19:27.637Z,6.00
2022-11-28T15:21:57.585Z,6.00
2022-11-28T15:24:28.982Z,6.00
2022-11-28T15:27:00.211Z,6.00
2022-11-28T15:29:29.569Z,6.00
2022-11-28T15:31:59.127Z,5.90
2022-11-28T15:34:30.076Z,6.00
2022-11-28T15:37:01.720Z,6.00
2022-11-28T15:39:35.203Z,5.90
2022-11-28T15:42:04.970Z,5.90
2022-11-28T15:44:33.244Z,6.00
2022-11-28T15:47:01.407Z,5.90
2022-11-28T15:52:06.805Z,5.90
2022-11-28T15:54:38.493Z,5.90
2022-11-28T15:57:07.170Z,5.90
2022-11-28T15:59:35.504Z,5.90
2022-11-28T16:02:12.214Z,5.90
2022-11-28T16:04:42.887Z,5.80
2022-11-28T16:07:14.743Z,5.80
2022-11-28T16:09:54.097Z,5.80
2022-11-28T16:12:22.232Z,5.90
2022-11-28T16:14:53.234Z,5.90
2022-11-28T16:17:24.738Z,6.00
2022-11-28T16:19:55.591Z,6.00
2022-11-28T16:22:31.950Z,6.00
2022-11-28T16:25:14.771Z,6.00
2022-11-28T16:27:48.594Z,6.00
2022-11-28T16:30:27.677Z,6.10
2022-11-28T16:32:57.097Z,6.00
2022-11-28T16:35:30.228Z,5.90
2022-11-28T16:38:17.525Z,5.90
2022-11-28T16:40:46.078Z,5.90
2022-11-28T16:43:22.335Z,5.90
2022-11-28T16:45:59.709Z,5.90
2022-11-28T16:48:29.587Z,5.90
2022-11-28T16:51:28.673Z,6.00
2022-11-28T16:53:59.509Z,5.90
2022-11-28T16:56:43.528Z,5.90
2022-11-28T16:59:14.636Z,6.00
2022-11-28T17:01:44.001Z,6.10
2022-11-28T17:04:21.857Z,6.10
2022-11-28T17:06:50.437Z,6.10
2022-11-28T17:09:20.169Z,6.10
2022-11-28T17:11:55.555Z,6.10
2022-11-28T17:14:23.534Z,6.10
2022-11-28T17:16:51.636Z,6.10
2022-11-28T17:19:19.786Z,6.10
2022-11-28T17:21:52.069Z,6.00
2022-11-28T17:24:23.990Z,6.10
2022-11-28T17:26:53.441Z,6.10
2022-11-28T17:29:22.222Z,6.10
2022-11-28T17:31:50.464Z,6.10
2022-11-28T17:34:20.079Z,6.10
2022-11-28T17:36:48.681Z,6.10
2022-11-28T17:39:17.948Z,6.00
2022-11-28T17:41:48.310Z,6.10
2022-11-28T17:44:20.341Z,6.00
2022-11-28T17:46:48.427Z,6.00
2022-11-28T17:49:16.435Z,6.00
2022-11-28T17:51:44.601Z,6.00
2022-11-28T17:54:14.075Z,6.00
2022-11-28T17:56:42.030Z,6.00
2022-11-28T17:59:13.306Z,5.90
2022-11-28T18:01:41.798Z,5.90
2022-11-28T18:04:43.206Z,5.90
2022-11-28T18:07:31.949Z,6.00
2022-11-28T18:10:20.111Z,6.00
2022-11-28T18:12:48.954Z,6.00
2022-11-28T18:15:18.519Z,5.90
2022-11-28T18:17:46.646Z,5.90
2022-11-28T18:20:14.723Z,5.90
2022-11-28T18:22:43.121Z,5.90
2022-11-28T18:25:11.283Z,6.00
2022-11-28T18:27:39.299Z,6.00
2022-11-28T18:30:08.602Z,6.00
2022-11-28T18:32:37.877Z,5.90
2022-11-28T18:35:06.780Z,6.00
2022-11-28T18:37:34.790Z,6.00
2022-11-28T18:40:07.666Z,6.00
2022-11-28T18:42:37.200Z,6.00
2022-11-28T18:45:05.832Z,6.00
2022-11-28T18:47:37.207Z,6.00
2022-11-28T18:50:06.931Z,5.90
2022-11-28T18:52:34.907Z,5.90
2022-11-28T18:55:03.249Z,5.90
2022-11-28T18:57:33.605Z,5.90
2022-11-28T19:00:02.239Z,6.00
2022-11-28T19:02:30.862Z,6.00
2022-11-28T19:05:00.683Z,6.00
2022-11-28T19:07:28.706Z,5.90
2022-11-28T19:09:56.631Z,5.90
2022-11-28T19:12:24.603Z,6.00
2022-11-28T19:14:56.108Z,6.00
2022-11-28T19:17:26.795Z,6.00
2022-11-28T19:19:55.065Z,6.00
2022-11-28T19:22:24.354Z,6.00
2022-11-28T19:24:52.220Z,6.00
2022-11-28T19:27:20.118Z,5.90
2022-11-28T19:29:48.034Z,6.00
2022-11-28T19:32:16.984Z,6.00
2022-11-28T19:34:45.000Z,6.00
2022-11-28T19:37:15.185Z,5.90
2022-11-28T19:39:44.954Z,6.00
2022-11-28T19:42:13.037Z,5.90
2022-11-28T19:44:41.085Z,5.90
2022-11-28T19:47:09.206Z,6.00
2022-11-28T19:49:37.107Z,6.10
2022-11-28T19:52:06.090Z,6.00
2022-11-28T19:54:35.182Z,6.00
2022-11-28T19:57:04.951Z,6.00
2022-11-28T19:59:32.916Z,6.10
2022-11-28T20:02:02.635Z,6.00
2022-11-28T20:04:30.988Z,6.00
2022-11-28T20:06:59.108Z,6.00
2022-11-28T20:09:27.215Z,6.00
2022-11-28T20:11:55.301Z,6.10
2022-11-28T20:14:24.694Z,6.10
2022-11-28T20:16:52.714Z,6.10
2022-11-28T20:19:20.882Z,6.10
2022-11-28T20:21:49.083Z,6.10
2022-11-28T20:24:19.377Z,6.10
2022-11-28T20:26:47.537Z,6.00
2022-11-28T20:29:17.150Z,6.10
2022-11-28T20:31:48.030Z,6.10
2022-11-28T20:34:18.057Z,6.10
2022-11-28T20:36:46.404Z,6.10
2022-11-28T20:39:14.430Z,6.10
2022-11-28T20:41:42.403Z,6.20
2022-11-28T20:44:12.119Z,6.20
2022-11-28T20:46:40.324Z,6.30
2022-11-28T20:49:09.786Z,6.20
2022-11-28T20:51:37.776Z,6.20
2022-11-28T20:54:07.154Z,6.20
2022-11-28T20:56:58.322Z,6.20
2022-11-28T20:59:27.224Z,6.20
2022-11-28T21:01:55.445Z,6.20
2022-11-28T21:04:25.134Z,6.20
2022-11-28T21:06:53.234Z,6.20
2022-11-28T21:09:23.687Z,6.20
2022-11-28T21:11:59.605Z,6.20
2022-11-28T21:14:29.084Z,6.20
2022-11-28T21:17:05.800Z,6.20
2022-11-28T21:19:35.205Z,6.30
2022-11-28T21:22:03.198Z,6.20
2022-11-28T21:24:31.356Z,6.20
2022-11-28T21:26:59.440Z,6.30
2022-11-28T21:29:27.356Z,6.30
2022-11-28T21:31:55.551Z,6.20
2022-11-28T21:34:23.838Z,6.20
2022-11-28T21:36:57.017Z,6.20
2022-11-28T21:39:24.923Z,6.30
2022-11-28T21:41:52.768Z,6.20
2022-11-28T21:44:21.067Z,6.20
2022-11-28T21:46:48.998Z,6.20
2022-11-28T21:49:17.200Z,6.20
2022-11-28T21:51:45.200Z,6.20
2022-11-28T21:54:14.671Z,6.20
2022-11-28T21:56:43.048Z,6.20
2022-11-28T21:59:10.968Z,6.20
2022-11-28T22:01:40.288Z,6.20
2022-11-28T22:04:08.868Z,6.20
2022-11-28T22:06:36.695Z,6.20
2022-11-28T22:09:09.469Z,6.20
2022-11-28T22:11:39.889Z,6.20
2022-11-28T22:14:07.964Z,6.20
2022-11-28T22:16:36.116Z,6.10
2022-11-28T22:19:04.158Z,6.10
2022-11-28T22:24:20.788Z,6.10
2022-11-28T22:26:50.282Z,6.10
2022-11-28T22:29:18.333Z,6.10
2022-11-28T22:31:46.372Z,6.10
2022-11-28T22:34:14.408Z,6.10
2022-11-28T22:36:42.790Z,6.10
2022-11-28T22:39:12.179Z,6.10
2022-11-28T22:41:40.294Z,6.10
2022-11-28T22:44:11.301Z,6.20
2022-11-28T22:46:39.218Z,6.20
2022-11-28T22:49:08.003Z,6.10
2022-11-28T22:51:37.001Z,6.00
2022-11-28T22:54:05.456Z,6.00
2022-11-28T22:56:34.498Z,6.10
2022-11-28T22:59:04.720Z,6.10
2022-11-28T23:01:34.655Z,6.10
2022-11-28T23:04:02.811Z,6.10
2022-11-28T23:06:32.781Z,6.00
2022-11-28T23:09:02.961Z,6.00
2022-11-28T23:11:33.342Z,6.00
2022-11-28T23:14:02.661Z,5.90
2022-11-28T23:16:34.135Z,5.90
2022-11-28T23:19:04.569Z,6.00
2022-11-28T23:21:34.670Z,6.00
2022-11-28T23:24:02.572Z,6.00
2022-11-28T23:26:32.360Z,6.00
2022-11-28T23:29:01.867Z,6.00
2022-11-28T23:31:31.499Z,6.10
2022-11-28T23:34:01.763Z,6.10
2022-11-28T23:36:33.733Z,6.10
2022-11-28T23:39:07.701Z,6.00
2022-11-28T23:41:35.649Z,6.00
2022-11-28T23:44:03.637Z,6.00
2022-11-28T23:46:31.740Z,6.00
2022-11-28T23:49:00.998Z,6.00
2022-11-28T23:51:28.964Z,6.00
2022-11-28T23:53:57.113Z,6.00
2022-11-28T23:56:28.062Z,6.00
2022-11-28T23:58:57.886Z,6.00
